sensor_id;sensor_type;location;lat;lon;timestamp;temperature;humidity
4374;DHT22;2201;51.100;6.814;2023-07-20T00:01:08;19.00;98.20
4374;DHT22;2201;51.100;6.814;2023-07-20T00:03:35;19.00;98.20
4374;DHT22;2201;51.100;6.814;2023-07-20T00:06:02;19.00;98.20
4374;DHT22;2201;51.100;6.814;2023-07-20T00:08:30;19.00;98.20
4374;DHT22;2201;51.100;6.814;2023-07-20T00:10:57;19.00;98.20
4374;DHT22;2201;51.100;6.814;2023-07-20T00:13:24;19.00;98.20
4374;DHT22;2201;51.100;6.814;2023-07-20T00:15:51;19.00;98.20
4374;DHT22;2201;51.100;6.814;2023-07-20T00:18:19;19.00;98.20
4374;DHT22;2201;51.100;6.814;2023-07-20T00:20:55;18.90;98.20
4374;DHT22;2201;51.100;6.814;2023-07-20T00:23:22;18.90;98.20
4374;DHT22;2201;51.100;6.814;2023-07-20T00:25:49;18.90;98.20
4374;DHT22;2201;51.100;6.814;2023-07-20T00:28:16;18.90;98.20
4374;DHT22;2201;51.100;6.814;2023-07-20T00:30:42;18.90;98.20
4374;DHT22;2201;51.100;6.814;2023-07-20T00:33:12;18.90;98.20
4374;DHT22;2201;51.100;6.814;2023-07-20T00:35:48;18.80;98.20
4374;DHT22;2201;51.100;6.814;2023-07-20T00:38:15;18.80;98.20
4374;DHT22;2201;51.100;6.814;2023-07-20T00:40:42;18.80;98.20
4374;DHT22;2201;51.100;6.814;2023-07-20T00:43:12;18.70;98.20
4374;DHT22;2201;51.100;6.814;2023-07-20T00:45:39;18.70;98.20
4374;DHT22;2201;51.100;6.814;2023-07-20T00:48:12;18.70;98.20
4374;DHT22;2201;51.100;6.814;2023-07-20T00:50:43;18.70;98.20
4374;DHT22;2201;51.100;6.814;2023-07-20T00:53:10;18.70;98.20
4374;DHT22;2201;51.100;6.814;2023-07-20T00:55:39;18.70;98.20
4374;DHT22;2201;51.100;6.814;2023-07-20T00:58:06;18.70;98.20
4374;DHT22;2201;51.100;6.814;2023-07-20T01:00:36;18.70;98.20
4374;DHT22;2201;51.100;6.814;2023-07-20T01:03:05;18.70;98.20
4374;DHT22;2201;51.100;6.814;2023-07-20T01:05:40;18.70;98.20
4374;DHT22;2201;51.100;6.814;2023-07-20T01:08:14;18.80;98.20
4374;DHT22;2201;51.100;6.814;2023-07-20T01:10:45;18.80;98.20
4374;DHT22;2201;51.100;6.814;2023-07-20T01:13:15;18.80;98.20
4374;DHT22;2201;51.100;6.814;2023-07-20T01:15:49;18.80;98.20
4374;DHT22;2201;51.100;6.814;2023-07-20T01:18:16;18.80;98.20
4374;DHT22;2201;51.100;6.814;2023-07-20T01:20:48;18.70;98.20
4374;DHT22;2201;51.100;6.814;2023-07-20T01:23:38;18.70;98.20
4374;DHT22;2201;51.100;6.814;2023-07-20T01:26:21;18.70;98.20
4374;DHT22;2201;51.100;6.814;2023-07-20T01:29:11;18.70;98.20
4374;DHT22;2201;51.100;6.814;2023-07-20T01:31:41;18.70;98.20
4374;DHT22;2201;51.100;6.814;2023-07-20T01:34:10;18.70;98.20
4374;DHT22;2201;51.100;6.814;2023-07-20T01:36:39;18.70;98.20
4374;DHT22;2201;51.100;6.814;2023-07-20T01:39:10;18.70;98.20
4374;DHT22;2201;51.100;6.814;2023-07-20T01:41:49;18.60;98.20
4374;DHT22;2201;51.100;6.814;2023-07-20T01:44:24;18.60;98.20
4374;DHT22;2201;51.100;6.814;2023-07-20T01:46:57;18.50;98.20
4374;DHT22;2201;51.100;6.814;2023-07-20T01:49:39;18.50;98.20
4374;DHT22;2201;51.100;6.814;2023-07-20T01:52:09;18.40;98.20
4374;DHT22;2201;51.100;6.814;2023-07-20T01:54:48;18.40;98.20
4374;DHT22;2201;51.100;6.814;2023-07-20T01:57:18;18.50;98.20
4374;DHT22;2201;51.100;6.814;2023-07-20T01:59:57;18.50;98.20
4374;DHT22;2201;51.100;6.814;2023-07-20T02:06:13;18.40;98.20
4374;DHT22;2201;51.100;6.814;2023-07-20T02:08:44;18.40;98.20
4374;DHT22;2201;51.100;6.814;2023-07-20T02:11:26;18.30;98.20
4374;DHT22;2201;51.100;6.814;2023-07-20T02:14:10;18.30;98.20
4374;DHT22;2201;51.100;6.814;2023-07-20T02:16:39;18.20;98.20
4374;DHT22;2201;51.100;6.814;2023-07-20T02:22:03;18.20;98.20
4374;DHT22;2201;51.100;6.814;2023-07-20T02:24:41;18.10;98.20
4374;DHT22;2201;51.100;6.814;2023-07-20T02:27:14;18.10;98.20
4374;DHT22;2201;51.100;6.814;2023-07-20T02:29:42;18.00;98.20
4374;DHT22;2201;51.100;6.814;2023-07-20T02:32:21;18.00;98.20
4374;DHT22;2201;51.100;6.814;2023-07-20T02:35:16;17.90;98.20
4374;DHT22;2201;51.100;6.814;2023-07-20T02:38:18;17.90;98.20
4374;DHT22;2201;51.100;6.814;2023-07-20T02:40:54;17.80;98.20
4374;DHT22;2201;51.100;6.814;2023-07-20T02:43:34;17.80;98.20
4374;DHT22;2201;51.100;6.814;2023-07-20T02:46:07;17.80;98.20
4374;DHT22;2201;51.100;6.814;2023-07-20T02:48:54;17.80;98.20
4374;DHT22;2201;51.100;6.814;2023-07-20T02:51:39;17.80;98.20
4374;DHT22;2201;51.100;6.814;2023-07-20T02:54:20;17.80;98.20
4374;DHT22;2201;51.100;6.814;2023-07-20T02:56:50;17.80;98.20
4374;DHT22;2201;51.100;6.814;2023-07-20T02:59:26;17.80;98.20
4374;DHT22;2201;51.100;6.814;2023-07-20T03:01:57;17.80;98.20
4374;DHT22;2201;51.100;6.814;2023-07-20T03:04:36;17.80;98.20
4374;DHT22;2201;51.100;6.814;2023-07-20T03:07:24;17.70;98.20
4374;DHT22;2201;51.100;6.814;2023-07-20T03:09:52;17.70;98.20
4374;DHT22;2201;51.100;6.814;2023-07-20T03:12:20;17.70;98.20
4374;DHT22;2201;51.100;6.814;2023-07-20T03:14:47;17.70;98.20
4374;DHT22;2201;51.100;6.814;2023-07-20T03:17:14;17.70;98.20
4374;DHT22;2201;51.100;6.814;2023-07-20T03:19:40;17.70;98.20
4374;DHT22;2201;51.100;6.814;2023-07-20T03:22:08;17.70;98.20
4374;DHT22;2201;51.100;6.814;2023-07-20T03:24:36;17.70;98.20
4374;DHT22;2201;51.100;6.814;2023-07-20T03:27:03;17.70;98.20
4374;DHT22;2201;51.100;6.814;2023-07-20T03:29:31;17.70;98.20
4374;DHT22;2201;51.100;6.814;2023-07-20T03:31:58;17.70;98.20
4374;DHT22;2201;51.100;6.814;2023-07-20T03:34:25;17.70;98.20
4374;DHT22;2201;51.100;6.814;2023-07-20T03:36:52;17.70;98.20
4374;DHT22;2201;51.100;6.814;2023-07-20T03:39:19;17.70;98.20
4374;DHT22;2201;51.100;6.814;2023-07-20T03:41:47;17.70;98.20
4374;DHT22;2201;51.100;6.814;2023-07-20T03:44:14;17.70;98.20
4374;DHT22;2201;51.100;6.814;2023-07-20T03:46:40;17.70;98.20
4374;DHT22;2201;51.100;6.814;2023-07-20T03:49:07;17.70;98.20
4374;DHT22;2201;51.100;6.814;2023-07-20T03:51:34;17.70;98.20
4374;DHT22;2201;51.100;6.814;2023-07-20T03:54:01;17.70;98.20
4374;DHT22;2201;51.100;6.814;2023-07-20T03:56:28;17.70;98.20
4374;DHT22;2201;51.100;6.814;2023-07-20T03:59:01;17.70;98.20
4374;DHT22;2201;51.100;6.814;2023-07-20T04:01:28;17.70;98.20
4374;DHT22;2201;51.100;6.814;2023-07-20T04:03:55;17.60;98.20
4374;DHT22;2201;51.100;6.814;2023-07-20T04:06:22;17.60;98.20
4374;DHT22;2201;51.100;6.814;2023-07-20T04:08:49;17.70;98.20
4374;DHT22;2201;51.100;6.814;2023-07-20T04:11:16;17.70;98.20
4374;DHT22;2201;51.100;6.814;2023-07-20T04:13:43;17.70;98.20
4374;DHT22;2201;51.100;6.814;2023-07-20T04:16:11;17.70;98.20
4374;DHT22;2201;51.100;6.814;2023-07-20T04:18:38;17.70;98.20
4374;DHT22;2201;51.100;6.814;2023-07-20T04:21:08;17.70;98.20
4374;DHT22;2201;51.100;6.814;2023-07-20T04:23:35;17.70;98.20
4374;DHT22;2201;51.100;6.814;2023-07-20T04:26:02;17.80;98.20
4374;DHT22;2201;51.100;6.814;2023-07-20T04:28:29;17.80;98.20
4374;DHT22;2201;51.100;6.814;2023-07-20T04:31:10;17.80;98.20
4374;DHT22;2201;51.100;6.814;2023-07-20T04:33:38;17.90;98.20
4374;DHT22;2201;51.100;6.814;2023-07-20T04:36:05;17.90;98.20
4374;DHT22;2201;51.100;6.814;2023-07-20T04:38:32;17.90;98.20
4374;DHT22;2201;51.100;6.814;2023-07-20T04:40:59;17.90;98.20
4374;DHT22;2201;51.100;6.814;2023-07-20T04:43:27;18.00;98.20
4374;DHT22;2201;51.100;6.814;2023-07-20T04:45:53;18.00;98.20
4374;DHT22;2201;51.100;6.814;2023-07-20T04:48:21;18.00;98.20
4374;DHT22;2201;51.100;6.814;2023-07-20T04:50:48;18.10;98.20
4374;DHT22;2201;51.100;6.814;2023-07-20T04:53:15;18.00;98.20
4374;DHT22;2201;51.100;6.814;2023-07-20T04:55:48;18.00;98.20
4374;DHT22;2201;51.100;6.814;2023-07-20T04:58:16;18.00;98.20
4374;DHT22;2201;51.100;6.814;2023-07-20T05:00:43;18.10;98.20
4374;DHT22;2201;51.100;6.814;2023-07-20T05:03:10;18.10;98.20
4374;DHT22;2201;51.100;6.814;2023-07-20T05:05:38;18.10;98.20
4374;DHT22;2201;51.100;6.814;2023-07-20T05:08:05;18.10;98.20
4374;DHT22;2201;51.100;6.814;2023-07-20T05:10:32;18.10;98.20
4374;DHT22;2201;51.100;6.814;2023-07-20T05:12:59;18.10;98.20
4374;DHT22;2201;51.100;6.814;2023-07-20T05:15:27;18.10;98.20
4374;DHT22;2201;51.100;6.814;2023-07-20T05:17:54;18.10;98.20
4374;DHT22;2201;51.100;6.814;2023-07-20T05:20:21;18.20;98.20
4374;DHT22;2201;51.100;6.814;2023-07-20T05:22:49;18.20;98.20
4374;DHT22;2201;51.100;6.814;2023-07-20T05:25:16;18.20;98.20
4374;DHT22;2201;51.100;6.814;2023-07-20T05:27:45;18.20;98.20
4374;DHT22;2201;51.100;6.814;2023-07-20T05:30:12;18.30;98.20
4374;DHT22;2201;51.100;6.814;2023-07-20T05:32:39;18.30;98.20
4374;DHT22;2201;51.100;6.814;2023-07-20T05:35:07;18.40;98.20
4374;DHT22;2201;51.100;6.814;2023-07-20T05:37:34;18.40;98.20
4374;DHT22;2201;51.100;6.814;2023-07-20T05:40:03;18.40;98.20
4374;DHT22;2201;51.100;6.814;2023-07-20T05:42:30;18.40;98.20
4374;DHT22;2201;51.100;6.814;2023-07-20T05:44:57;18.50;98.20
4374;DHT22;2201;51.100;6.814;2023-07-20T05:47:23;18.60;98.20
4374;DHT22;2201;51.100;6.814;2023-07-20T05:49:50;18.60;98.20
4374;DHT22;2201;51.100;6.814;2023-07-20T05:52:17;18.80;98.20
4374;DHT22;2201;51.100;6.814;2023-07-20T05:54:44;19.00;98.20
4374;DHT22;2201;51.100;6.814;2023-07-20T05:57:12;19.10;98.20
4374;DHT22;2201;51.100;6.814;2023-07-20T05:59:39;19.30;98.20
4374;DHT22;2201;51.100;6.814;2023-07-20T06:02:09;19.40;98.20
4374;DHT22;2201;51.100;6.814;2023-07-20T06:04:36;19.50;98.20
4374;DHT22;2201;51.100;6.814;2023-07-20T06:07:03;19.50;98.20
4374;DHT22;2201;51.100;6.814;2023-07-20T06:09:30;19.60;98.20
4374;DHT22;2201;51.100;6.814;2023-07-20T06:11:57;19.60;98.20
4374;DHT22;2201;51.100;6.814;2023-07-20T06:14:25;19.60;98.20
4374;DHT22;2201;51.100;6.814;2023-07-20T06:16:52;19.60;98.20
4374;DHT22;2201;51.100;6.814;2023-07-20T06:19:19;19.50;98.20
4374;DHT22;2201;51.100;6.814;2023-07-20T06:21:48;19.50;98.20
4374;DHT22;2201;51.100;6.814;2023-07-20T06:24:15;19.50;98.20
4374;DHT22;2201;51.100;6.814;2023-07-20T06:26:41;19.60;98.20
4374;DHT22;2201;51.100;6.814;2023-07-20T06:29:08;19.60;98.20
4374;DHT22;2201;51.100;6.814;2023-07-20T06:31:37;19.80;98.20
4374;DHT22;2201;51.100;6.814;2023-07-20T06:34:04;20.00;98.20
4374;DHT22;2201;51.100;6.814;2023-07-20T06:36:31;20.30;98.20
4374;DHT22;2201;51.100;6.814;2023-07-20T06:38:57;20.50;98.20
4374;DHT22;2201;51.100;6.814;2023-07-20T06:41:24;20.70;98.20
4374;DHT22;2201;51.100;6.814;2023-07-20T06:43:51;20.80;98.20
4374;DHT22;2201;51.100;6.814;2023-07-20T06:46:23;20.90;98.20
4374;DHT22;2201;51.100;6.814;2023-07-20T06:48:51;21.00;98.20
4374;DHT22;2201;51.100;6.814;2023-07-20T06:51:19;21.00;98.20
4374;DHT22;2201;51.100;6.814;2023-07-20T06:53:46;21.00;98.20
4374;DHT22;2201;51.100;6.814;2023-07-20T06:56:12;21.00;98.20
4374;DHT22;2201;51.100;6.814;2023-07-20T06:58:39;21.00;98.20
4374;DHT22;2201;51.100;6.814;2023-07-20T07:01:07;20.90;98.20
4374;DHT22;2201;51.100;6.814;2023-07-20T07:03:35;20.90;98.20
4374;DHT22;2201;51.100;6.814;2023-07-20T07:06:03;20.90;98.20
4374;DHT22;2201;51.100;6.814;2023-07-20T07:08:30;20.80;98.20
4374;DHT22;2201;51.100;6.814;2023-07-20T07:10:57;20.80;98.20
4374;DHT22;2201;51.100;6.814;2023-07-20T07:13:24;21.00;98.20
4374;DHT22;2201;51.100;6.814;2023-07-20T07:15:51;21.40;98.20
4374;DHT22;2201;51.100;6.814;2023-07-20T07:18:18;21.70;98.20
4374;DHT22;2201;51.100;6.814;2023-07-20T07:20:50;22.20;96.90
4374;DHT22;2201;51.100;6.814;2023-07-20T07:23:19;22.40;94.00
4374;DHT22;2201;51.100;6.814;2023-07-20T07:25:46;22.50;92.80
4374;DHT22;2201;51.100;6.814;2023-07-20T07:28:13;22.60;92.70
4374;DHT22;2201;51.100;6.814;2023-07-20T07:30:40;22.50;92.10
4374;DHT22;2201;51.100;6.814;2023-07-20T07:33:06;22.30;92.50
4374;DHT22;2201;51.100;6.814;2023-07-20T07:35:34;22.10;92.60
4374;DHT22;2201;51.100;6.814;2023-07-20T07:38:00;21.90;93.30
4374;DHT22;2201;51.100;6.814;2023-07-20T07:40:28;21.80;93.30
4374;DHT22;2201;51.100;6.814;2023-07-20T07:42:55;21.80;94.50
4374;DHT22;2201;51.100;6.814;2023-07-20T07:45:22;22.00;94.30
4374;DHT22;2201;51.100;6.814;2023-07-20T07:47:49;22.30;94.30
4374;DHT22;2201;51.100;6.814;2023-07-20T07:50:16;22.60;94.00
4374;DHT22;2201;51.100;6.814;2023-07-20T07:52:43;22.90;91.40
4374;DHT22;2201;51.100;6.814;2023-07-20T07:55:09;23.00;90.00
4374;DHT22;2201;51.100;6.814;2023-07-20T07:57:38;22.90;90.10
4374;DHT22;2201;51.100;6.814;2023-07-20T08:00:06;22.80;90.30
4374;DHT22;2201;51.100;6.814;2023-07-20T08:02:37;22.70;90.20
4374;DHT22;2201;51.100;6.814;2023-07-20T08:05:04;22.80;90.20
4374;DHT22;2201;51.100;6.814;2023-07-20T08:07:31;22.90;89.90
4374;DHT22;2201;51.100;6.814;2023-07-20T08:09:58;23.00;89.70
4374;DHT22;2201;51.100;6.814;2023-07-20T08:12:26;23.10;88.70
4374;DHT22;2201;51.100;6.814;2023-07-20T08:14:54;23.00;88.90
4374;DHT22;2201;51.100;6.814;2023-07-20T08:17:20;22.90;88.90
4374;DHT22;2201;51.100;6.814;2023-07-20T08:19:47;22.70;89.10
4374;DHT22;2201;51.100;6.814;2023-07-20T08:22:14;22.80;89.60
4374;DHT22;2201;51.100;6.814;2023-07-20T08:24:41;23.00;88.80
4374;DHT22;2201;51.100;6.814;2023-07-20T08:27:08;23.40;89.00
4374;DHT22;2201;51.100;6.814;2023-07-20T08:29:36;23.70;87.90
4374;DHT22;2201;51.100;6.814;2023-07-20T08:32:05;23.80;87.20
4374;DHT22;2201;51.100;6.814;2023-07-20T08:34:32;23.90;86.10
4374;DHT22;2201;51.100;6.814;2023-07-20T08:36:59;24.10;85.90
4374;DHT22;2201;51.100;6.814;2023-07-20T08:39:26;24.20;85.50
4374;DHT22;2201;51.100;6.814;2023-07-20T08:41:54;24.20;85.50
4374;DHT22;2201;51.100;6.814;2023-07-20T08:44:21;24.10;84.30
4374;DHT22;2201;51.100;6.814;2023-07-20T08:46:49;24.10;84.50
4374;DHT22;2201;51.100;6.814;2023-07-20T08:49:17;24.00;84.60
4374;DHT22;2201;51.100;6.814;2023-07-20T08:51:46;24.10;85.30
4374;DHT22;2201;51.100;6.814;2023-07-20T08:54:13;24.30;85.70
4374;DHT22;2201;51.100;6.814;2023-07-20T08:56:41;24.70;84.00
4374;DHT22;2201;51.100;6.814;2023-07-20T08:59:09;25.10;83.90
4374;DHT22;2201;51.100;6.814;2023-07-20T09:01:36;25.50;83.90
4374;DHT22;2201;51.100;6.814;2023-07-20T09:04:06;25.80;82.40
4374;DHT22;2201;51.100;6.814;2023-07-20T09:06:35;25.90;80.00
4374;DHT22;2201;51.100;6.814;2023-07-20T09:09:02;25.70;80.60
4374;DHT22;2201;51.100;6.814;2023-07-20T09:11:29;25.30;81.80
4374;DHT22;2201;51.100;6.814;2023-07-20T09:14:03;25.30;81.90
4374;DHT22;2201;51.100;6.814;2023-07-20T09:16:38;25.60;81.20
4374;DHT22;2201;51.100;6.814;2023-07-20T09:19:17;25.80;78.70
4374;DHT22;2201;51.100;6.814;2023-07-20T09:21:48;26.00;79.40
4374;DHT22;2201;51.100;6.814;2023-07-20T09:24:28;26.30;79.00
4374;DHT22;2201;51.100;6.814;2023-07-20T09:27:04;26.30;77.10
4374;DHT22;2201;51.100;6.814;2023-07-20T09:29:31;26.20;75.80
4374;DHT22;2201;51.100;6.814;2023-07-20T09:31:59;26.20;77.30
4374;DHT22;2201;51.100;6.814;2023-07-20T09:34:40;26.10;75.70
4374;DHT22;2201;51.100;6.814;2023-07-20T09:37:14;25.90;77.80
4374;DHT22;2201;51.100;6.814;2023-07-20T09:39:49;26.20;78.10
4374;DHT22;2201;51.100;6.814;2023-07-20T09:42:22;26.40;76.80
4374;DHT22;2201;51.100;6.814;2023-07-20T09:44:50;26.40;76.90
4374;DHT22;2201;51.100;6.814;2023-07-20T09:47:23;26.40;76.40
4374;DHT22;2201;51.100;6.814;2023-07-20T09:49:56;26.30;76.00
4374;DHT22;2201;51.100;6.814;2023-07-20T09:52:40;26.20;73.80
4374;DHT22;2201;51.100;6.814;2023-07-20T09:55:36;26.20;75.50
4374;DHT22;2201;51.100;6.814;2023-07-20T09:58:27;26.40;75.10
4374;DHT22;2201;51.100;6.814;2023-07-20T10:01:20;26.70;74.30
4374;DHT22;2201;51.100;6.814;2023-07-20T10:03:58;27.00;73.30
4374;DHT22;2201;51.100;6.814;2023-07-20T10:09:31;27.70;71.60
4374;DHT22;2201;51.100;6.814;2023-07-20T10:12:02;27.80;72.10
4374;DHT22;2201;51.100;6.814;2023-07-20T10:14:38;28.00;71.70
4374;DHT22;2201;51.100;6.814;2023-07-20T10:17:07;28.00;70.20
4374;DHT22;2201;51.100;6.814;2023-07-20T10:19:42;28.00;70.50
4374;DHT22;2201;51.100;6.814;2023-07-20T10:22:17;27.90;71.50
4374;DHT22;2201;51.100;6.814;2023-07-20T10:24:47;28.10;70.70
4374;DHT22;2201;51.100;6.814;2023-07-20T10:27:14;28.30;71.00
4374;DHT22;2201;51.100;6.814;2023-07-20T10:29:44;28.60;70.40
4374;DHT22;2201;51.100;6.814;2023-07-20T10:32:15;29.00;70.30
4374;DHT22;2201;51.100;6.814;2023-07-20T10:34:42;29.20;67.80
4374;DHT22;2201;51.100;6.814;2023-07-20T10:37:09;29.30;68.00
4374;DHT22;2201;51.100;6.814;2023-07-20T10:39:43;29.20;68.50
4374;DHT22;2201;51.100;6.814;2023-07-20T10:42:14;29.10;67.30
4374;DHT22;2201;51.100;6.814;2023-07-20T10:44:41;28.80;68.30
4374;DHT22;2201;51.100;6.814;2023-07-20T10:47:12;28.40;69.30
4374;DHT22;2201;51.100;6.814;2023-07-20T10:49:57;28.00;70.00
4374;DHT22;2201;51.100;6.814;2023-07-20T10:54:51;27.90;70.50
4374;DHT22;2201;51.100;6.814;2023-07-20T10:55:45;27.50;68.90
4374;DHT22;2201;51.100;6.814;2023-07-20T10:58:17;27.60;71.70
4374;DHT22;2201;51.100;6.814;2023-07-20T11:01:03;27.70;70.30
4374;DHT22;2201;51.100;6.814;2023-07-20T11:03:33;27.90;68.60
4374;DHT22;2201;51.100;6.814;2023-07-20T11:06:38;27.80;69.20
4374;DHT22;2201;51.100;6.814;2023-07-20T11:09:10;27.70;70.30
4374;DHT22;2201;51.100;6.814;2023-07-20T11:11:40;27.60;68.90
4374;DHT22;2201;51.100;6.814;2023-07-20T11:14:10;27.40;70.20
4374;DHT22;2201;51.100;6.814;2023-07-20T11:16:45;27.20;70.10
4374;DHT22;2201;51.100;6.814;2023-07-20T11:19:17;27.10;70.10
4374;DHT22;2201;51.100;6.814;2023-07-20T11:21:53;27.00;70.80
4374;DHT22;2201;51.100;6.814;2023-07-20T11:24:25;27.00;70.30
4374;DHT22;2201;51.100;6.814;2023-07-20T11:26:54;26.90;70.60
4374;DHT22;2201;51.100;6.814;2023-07-20T11:29:23;26.80;71.60
4374;DHT22;2201;51.100;6.814;2023-07-20T11:31:53;26.70;70.90
4374;DHT22;2201;51.100;6.814;2023-07-20T11:34:20;26.60;71.80
4374;DHT22;2201;51.100;6.814;2023-07-20T11:36:49;26.70;72.40
4374;DHT22;2201;51.100;6.814;2023-07-20T11:39:21;27.10;72.90
4374;DHT22;2201;51.100;6.814;2023-07-20T11:41:58;27.50;70.50
4374;DHT22;2201;51.100;6.814;2023-07-20T11:44:32;27.70;69.60
4374;DHT22;2201;51.100;6.814;2023-07-20T11:47:08;27.60;68.70
4374;DHT22;2201;51.100;6.814;2023-07-20T11:49:36;27.40;68.40
4374;DHT22;2201;51.100;6.814;2023-07-20T11:52:07;27.30;70.00
4374;DHT22;2201;51.100;6.814;2023-07-20T11:54:41;27.10;68.50
4374;DHT22;2201;51.100;6.814;2023-07-20T11:57:16;26.90;70.60
4374;DHT22;2201;51.100;6.814;2023-07-20T11:59:54;26.70;70.30
4374;DHT22;2201;51.100;6.814;2023-07-20T12:02:22;26.60;71.60
4374;DHT22;2201;51.100;6.814;2023-07-20T12:04:54;26.70;71.60
4374;DHT22;2201;51.100;6.814;2023-07-20T12:07:21;26.60;70.00
4374;DHT22;2201;51.100;6.814;2023-07-20T12:10:03;26.60;68.80
4374;DHT22;2201;51.100;6.814;2023-07-20T12:12:31;26.70;69.00
4374;DHT22;2201;51.100;6.814;2023-07-20T12:15:15;26.70;69.20
4374;DHT22;2201;51.100;6.814;2023-07-20T12:17:43;26.70;69.90
4374;DHT22;2201;51.100;6.814;2023-07-20T12:20:10;26.70;69.20
4374;DHT22;2201;51.100;6.814;2023-07-20T12:22:43;26.80;70.60
4374;DHT22;2201;51.100;6.814;2023-07-20T12:25:13;26.80;69.60
4374;DHT22;2201;51.100;6.814;2023-07-20T12:27:41;27.20;69.40
4374;DHT22;2201;51.100;6.814;2023-07-20T12:30:11;27.50;67.20
4374;DHT22;2201;51.100;6.814;2023-07-20T12:32:49;27.60;68.30
4374;DHT22;2201;51.100;6.814;2023-07-20T12:35:16;27.60;67.50
4374;DHT22;2201;51.100;6.814;2023-07-20T12:37:42;27.50;67.30
4374;DHT22;2201;51.100;6.814;2023-07-20T12:40:09;27.30;67.30
4374;DHT22;2201;51.100;6.814;2023-07-20T12:42:36;27.10;68.70
4374;DHT22;2201;51.100;6.814;2023-07-20T12:45:05;26.90;68.40
4374;DHT22;2201;51.100;6.814;2023-07-20T12:47:32;26.60;69.00
4374;DHT22;2201;51.100;6.814;2023-07-20T12:50:01;26.40;69.70
4374;DHT22;2201;51.100;6.814;2023-07-20T12:52:35;26.20;69.50
4374;DHT22;2201;51.100;6.814;2023-07-20T12:55:07;26.00;70.00
4374;DHT22;2201;51.100;6.814;2023-07-20T12:57:35;25.90;71.00
4374;DHT22;2201;51.100;6.814;2023-07-20T13:00:02;25.80;71.00
4374;DHT22;2201;51.100;6.814;2023-07-20T13:02:30;25.70;71.70
4374;DHT22;2201;51.100;6.814;2023-07-20T13:04:57;25.80;71.60
4374;DHT22;2201;51.100;6.814;2023-07-20T13:07:31;25.90;71.80
4374;DHT22;2201;51.100;6.814;2023-07-20T13:09:58;26.20;72.30
4374;DHT22;2201;51.100;6.814;2023-07-20T13:12:26;26.40;71.20
4374;DHT22;2201;51.100;6.814;2023-07-20T13:14:54;26.60;71.00
4374;DHT22;2201;51.100;6.814;2023-07-20T13:17:21;26.80;70.00
4374;DHT22;2201;51.100;6.814;2023-07-20T13:19:48;26.90;70.10
4374;DHT22;2201;51.100;6.814;2023-07-20T13:22:17;27.10;69.40
4374;DHT22;2201;51.100;6.814;2023-07-20T13:24:52;27.30;68.80
4374;DHT22;2201;51.100;6.814;2023-07-20T13:27:19;27.50;68.20
4374;DHT22;2201;51.100;6.814;2023-07-20T13:29:46;27.50;68.70
4374;DHT22;2201;51.100;6.814;2023-07-20T13:32:13;27.60;68.30
4374;DHT22;2201;51.100;6.814;2023-07-20T13:34:44;27.70;68.50
4374;DHT22;2201;51.100;6.814;2023-07-20T13:37:11;27.70;67.80
4374;DHT22;2201;51.100;6.814;2023-07-20T13:39:39;27.70;68.00
4374;DHT22;2201;51.100;6.814;2023-07-20T13:42:18;27.60;67.80
4374;DHT22;2201;51.100;6.814;2023-07-20T13:44:46;27.60;68.10
4374;DHT22;2201;51.100;6.814;2023-07-20T13:47:13;27.50;68.40
4374;DHT22;2201;51.100;6.814;2023-07-20T13:49:40;27.50;67.40
4374;DHT22;2201;51.100;6.814;2023-07-20T13:52:08;27.50;68.20
4374;DHT22;2201;51.100;6.814;2023-07-20T13:54:38;27.50;68.40
4374;DHT22;2201;51.100;6.814;2023-07-20T13:57:05;27.40;67.90
4374;DHT22;2201;51.100;6.814;2023-07-20T13:59:34;27.40;68.00
4374;DHT22;2201;51.100;6.814;2023-07-20T14:02:00;27.40;68.00
4374;DHT22;2201;51.100;6.814;2023-07-20T14:04:27;27.40;67.80
4374;DHT22;2201;51.100;6.814;2023-07-20T14:06:54;27.60;68.20
4374;DHT22;2201;51.100;6.814;2023-07-20T14:09:21;27.80;67.50
4374;DHT22;2201;51.100;6.814;2023-07-20T14:11:48;27.80;67.10
4374;DHT22;2201;51.100;6.814;2023-07-20T14:14:15;27.80;67.00
4374;DHT22;2201;51.100;6.814;2023-07-20T14:16:43;27.70;66.60
4374;DHT22;2201;51.100;6.814;2023-07-20T14:19:14;27.50;67.20
4374;DHT22;2201;51.100;6.814;2023-07-20T14:21:41;27.40;67.80
4374;DHT22;2201;51.100;6.814;2023-07-20T14:24:08;27.20;68.60
4374;DHT22;2201;51.100;6.814;2023-07-20T14:26:35;27.00;68.90
4374;DHT22;2201;51.100;6.814;2023-07-20T14:29:02;26.70;68.80
4374;DHT22;2201;51.100;6.814;2023-07-20T14:31:29;26.50;69.10
4374;DHT22;2201;51.100;6.814;2023-07-20T14:33:57;26.10;69.40
4374;DHT22;2201;51.100;6.814;2023-07-20T14:36:24;25.90;70.70
4374;DHT22;2201;51.100;6.814;2023-07-20T14:38:51;25.80;70.40
4374;DHT22;2201;51.100;6.814;2023-07-20T14:41:17;25.80;70.90
4374;DHT22;2201;51.100;6.814;2023-07-20T14:43:44;25.60;70.90
4374;DHT22;2201;51.100;6.814;2023-07-20T14:46:11;25.60;72.00
4374;DHT22;2201;51.100;6.814;2023-07-20T14:48:38;25.90;71.50
4374;DHT22;2201;51.100;6.814;2023-07-20T14:51:06;26.10;70.70
4374;DHT22;2201;51.100;6.814;2023-07-20T14:53:32;26.20;71.10
4374;DHT22;2201;51.100;6.814;2023-07-20T14:56:00;26.30;70.00
4374;DHT22;2201;51.100;6.814;2023-07-20T14:58:27;26.40;70.10
4374;DHT22;2201;51.100;6.814;2023-07-20T15:00:53;26.40;70.00
4374;DHT22;2201;51.100;6.814;2023-07-20T15:03:20;26.50;70.50
4374;DHT22;2201;51.100;6.814;2023-07-20T15:05:47;26.80;69.40
4374;DHT22;2201;51.100;6.814;2023-07-20T15:08:15;27.00;69.40
4374;DHT22;2201;51.100;6.814;2023-07-20T15:10:42;27.10;68.80
4374;DHT22;2201;51.100;6.814;2023-07-20T15:13:12;27.10;68.20
4374;DHT22;2201;51.100;6.814;2023-07-20T15:15:39;26.80;68.60
4374;DHT22;2201;51.100;6.814;2023-07-20T15:18:06;26.60;69.40
4374;DHT22;2201;51.100;6.814;2023-07-20T15:20:32;26.40;69.30
4374;DHT22;2201;51.100;6.814;2023-07-20T15:23:00;26.10;69.50
4374;DHT22;2201;51.100;6.814;2023-07-20T15:25:28;26.10;71.00
4374;DHT22;2201;51.100;6.814;2023-07-20T15:27:55;26.20;70.80
4374;DHT22;2201;51.100;6.814;2023-07-20T15:30:22;26.30;69.50
4374;DHT22;2201;51.100;6.814;2023-07-20T15:32:49;26.50;69.60
4374;DHT22;2201;51.100;6.814;2023-07-20T15:35:19;26.70;69.10
4374;DHT22;2201;51.100;6.814;2023-07-20T15:37:46;26.80;68.70
4374;DHT22;2201;51.100;6.814;2023-07-20T15:40:13;26.70;68.80
4374;DHT22;2201;51.100;6.814;2023-07-20T15:42:42;26.60;68.60
4374;DHT22;2201;51.100;6.814;2023-07-20T15:45:10;26.60;69.60
4374;DHT22;2201;51.100;6.814;2023-07-20T15:47:37;26.50;69.70
4374;DHT22;2201;51.100;6.814;2023-07-20T15:50:04;26.50;69.40
4374;DHT22;2201;51.100;6.814;2023-07-20T15:52:31;26.50;69.10
4374;DHT22;2201;51.100;6.814;2023-07-20T15:54:58;26.50;69.10
4374;DHT22;2201;51.100;6.814;2023-07-20T15:57:28;26.40;69.60
4374;DHT22;2201;51.100;6.814;2023-07-20T16:00:16;26.30;68.90
4374;DHT22;2201;51.100;6.814;2023-07-20T16:02:43;26.30;69.40
4374;DHT22;2201;51.100;6.814;2023-07-20T16:05:10;26.30;69.20
4374;DHT22;2201;51.100;6.814;2023-07-20T16:07:37;26.40;68.80
4374;DHT22;2201;51.100;6.814;2023-07-20T16:10:05;26.40;69.00
4374;DHT22;2201;51.100;6.814;2023-07-20T16:12:35;26.40;69.10
4374;DHT22;2201;51.100;6.814;2023-07-20T16:15:06;26.40;69.50
4374;DHT22;2201;51.100;6.814;2023-07-20T16:17:33;26.30;69.80
4374;DHT22;2201;51.100;6.814;2023-07-20T16:20:00;26.30;69.10
4374;DHT22;2201;51.100;6.814;2023-07-20T16:22:29;26.10;68.70
4374;DHT22;2201;51.100;6.814;2023-07-20T16:24:56;25.90;69.50
4374;DHT22;2201;51.100;6.814;2023-07-20T16:27:23;25.80;70.00
4374;DHT22;2201;51.100;6.814;2023-07-20T16:29:50;25.80;69.70